createdAt,value
2022-10-22T00:02:27.168Z,100275.40
2022-10-22T00:07:22.211Z,100266.20
2022-10-22T00:12:17.952Z,100260.20
2022-10-22T00:17:13.223Z,100266.60
2022-10-22T00:22:10.222Z,100259.80
2022-10-22T00:27:06.553Z,100254.00
2022-10-22T00:32:02.044Z,100248.60
2022-10-22T00:36:57.310Z,100250.00
2022-10-22T00:41:54.527Z,100242.40
2022-10-22T00:46:49.723Z,100230.00
2022-10-22T00:51:44.686Z,100223.40
2022-10-22T00:56:40.065Z,100219.00
2022-10-22T01:01:35.357Z,100210.00
2022-10-22T01:06:33.639Z,100212.80
2022-10-22T01:11:43.235Z,100209.60
2022-10-22T01:16:48.707Z,100203.80
2022-10-22T01:21:49.425Z,100198.80
2022-10-22T01:27:03.654Z,100201.20
2022-10-22T01:32:05.091Z,100206.60
2022-10-22T01:37:02.981Z,100198.40
2022-10-22T01:41:58.897Z,100194.20
2022-10-22T01:47:03.253Z,100188.40
2022-10-22T01:52:15.461Z,100187.40
2022-10-22T01:57:24.283Z,100183.60
2022-10-22T02:02:36.713Z,100194.40
2022-10-22T02:07:38.122Z,100192.00
2022-10-22T02:12:37.757Z,100195.40
2022-10-22T02:17:37.339Z,100180.60
2022-10-22T02:22:34.152Z,100178.00
2022-10-22T02:27:33.104Z,100171.80
2022-10-22T02:32:35.544Z,100176.20
2022-10-22T02:37:31.202Z,100178.80
2022-10-22T02:42:28.443Z,100175.20
2022-10-22T02:47:23.943Z,100176.00
2022-10-22T02:52:19.040Z,100173.80
2022-10-22T02:57:14.697Z,100175.20
2022-10-22T03:02:09.306Z,100179.00
2022-10-22T03:07:04.475Z,100181.80
2022-10-22T03:11:59.686Z,100182.00
2022-10-22T03:16:54.728Z,100175.60
2022-10-22T03:21:56.510Z,100169.80
2022-10-22T03:26:52.725Z,100165.60
2022-10-22T03:31:47.714Z,100164.80
2022-10-22T03:36:43.798Z,100160.40
2022-10-22T03:41:38.708Z,100157.80
2022-10-22T03:46:33.984Z,100168.60
2022-10-22T03:51:29.506Z,100175.80
2022-10-22T03:56:25.172Z,100184.40
2022-10-22T04:01:19.802Z,100186.60
2022-10-22T04:06:15.378Z,100168.00
2022-10-22T04:11:12.767Z,100153.60
2022-10-22T04:16:12.851Z,100173.20
2022-10-22T04:21:10.609Z,100179.60
2022-10-22T04:26:07.843Z,100166.20
2022-10-22T04:31:09.467Z,100152.20
2022-10-22T04:36:12.359Z,100146.00
2022-10-22T04:41:16.378Z,100132.60
2022-10-22T04:46:15.141Z,100147.00
2022-10-22T04:51:13.485Z,100136.80
2022-10-22T04:56:16.621Z,100128.80
2022-10-22T05:01:17.741Z,100119.40
2022-10-22T05:06:14.173Z,100127.80
2022-10-22T05:11:19.217Z,100125.20
2022-10-22T05:16:15.672Z,100129.60
2022-10-22T05:21:13.314Z,100140.00
2022-10-22T05:26:10.806Z,100138.20
2022-10-22T05:31:08.634Z,100144.40
2022-10-22T05:36:06.706Z,100152.60
2022-10-22T05:41:08.161Z,100155.60
2022-10-22T05:46:06.383Z,100156.00
2022-10-22T05:51:05.036Z,100154.00
2022-10-22T05:56:04.119Z,100145.80
2022-10-22T06:01:05.997Z,100144.80
2022-10-22T06:06:07.759Z,100147.20
2022-10-22T06:11:02.758Z,100141.40
2022-10-22T06:15:58.703Z,100145.60
2022-10-22T06:20:53.316Z,100159.40
2022-10-22T06:25:58.914Z,100153.00
2022-10-22T06:30:53.696Z,100167.00
2022-10-22T06:35:48.549Z,100161.40
2022-10-22T06:40:44.338Z,100180.00
2022-10-22T06:45:39.680Z,100171.20
2022-10-22T06:50:35.974Z,100179.60
2022-10-22T06:55:31.312Z,100173.60
2022-10-22T07:00:26.428Z,100182.40
2022-10-22T07:05:21.218Z,100174.80
2022-10-22T07:10:16.628Z,100167.00
2022-10-22T07:15:13.646Z,100183.80
2022-10-22T07:20:12.692Z,100209.00
2022-10-22T07:25:09.776Z,100215.20
2022-10-22T07:30:06.368Z,100213.40
2022-10-22T07:35:01.646Z,100212.80
2022-10-22T07:39:58.393Z,100218.60
2022-10-22T07:44:56.741Z,100212.00
2022-10-22T07:49:51.319Z,100198.00
2022-10-22T07:54:46.380Z,100197.00
2022-10-22T07:59:40.631Z,100194.00
2022-10-22T08:04:36.323Z,100203.00
2022-10-22T08:09:31.549Z,100199.60
2022-10-22T08:14:27.151Z,100203.20
2022-10-22T08:19:21.799Z,100213.00
2022-10-22T08:24:18.034Z,100216.20
2022-10-22T08:29:13.454Z,100216.20
2022-10-22T08:34:08.387Z,100221.40
2022-10-22T08:39:02.963Z,100226.20
2022-10-22T08:44:28.231Z,100226.80
2022-10-22T08:49:28.292Z,100220.80
2022-10-22T08:54:36.831Z,100220.20
2022-10-22T08:59:42.453Z,100220.40
2022-10-22T09:04:47.299Z,100223.00
2022-10-22T09:09:50.304Z,100229.60
2022-10-22T09:14:45.743Z,100240.80
2022-10-22T09:19:55.523Z,100246.00
2022-10-22T09:24:59.002Z,100247.00
2022-10-22T09:29:54.162Z,100247.80
2022-10-22T09:34:50.866Z,100248.80
2022-10-22T09:39:51.377Z,100242.20
2022-10-22T09:44:53.459Z,100231.40
2022-10-22T09:49:48.343Z,100226.60
2022-10-22T09:54:44.353Z,100230.20
2022-10-22T09:59:42.652Z,100221.80
2022-10-22T10:04:46.670Z,100220.60
2022-10-22T10:09:42.527Z,100218.60
2022-10-22T10:14:54.216Z,100226.00
2022-10-22T10:20:22.103Z,100227.00
2022-10-22T10:25:41.737Z,100227.60
2022-10-22T10:30:48.964Z,100233.40
2022-10-22T10:35:58.165Z,100239.80
2022-10-22T10:41:00.131Z,100240.00
2022-10-22T10:46:12.655Z,100235.60
2022-10-22T10:51:26.159Z,100243.80
2022-10-22T10:56:39.239Z,100252.20
2022-10-22T11:01:50.888Z,100254.40
2022-10-22T11:06:46.746Z,100256.60
2022-10-22T11:11:50.738Z,100253.60
2022-10-22T11:16:53.910Z,100246.80
2022-10-22T11:21:57.208Z,100233.80
2022-10-22T11:27:00.782Z,100223.00
2022-10-22T11:31:57.749Z,100221.20
2022-10-22T11:36:55.143Z,100221.40
2022-10-22T11:41:52.998Z,100223.20
2022-10-22T11:46:57.179Z,100224.20
2022-10-22T11:52:05.179Z,100219.40
2022-10-22T11:57:21.153Z,100214.40
2022-10-22T12:02:40.922Z,100213.60
2022-10-22T12:07:54.244Z,100206.20
2022-10-22T12:12:57.588Z,100201.00
2022-10-22T12:17:59.273Z,100201.40
2022-10-22T12:22:54.990Z,100191.80
2022-10-22T12:27:54.322Z,100197.00
2022-10-22T12:32:51.608Z,100188.80
2022-10-22T12:37:51.228Z,100188.80
2022-10-22T12:42:51.379Z,100183.40
2022-10-22T12:47:50.022Z,100181.60
2022-10-22T12:52:45.324Z,100181.00
2022-10-22T12:57:40.355Z,100187.80
2022-10-22T13:02:35.495Z,100187.80
2022-10-22T13:07:42.240Z,100178.80
2022-10-22T13:12:38.716Z,100185.60
2022-10-22T13:17:49.365Z,100191.60
2022-10-22T13:22:59.535Z,100207.80
2022-10-22T13:28:00.088Z,100206.80
2022-10-22T13:32:58.687Z,100214.00
2022-10-22T13:37:53.724Z,100212.80
2022-10-22T13:42:49.256Z,100198.80
2022-10-22T13:47:51.012Z,100201.20
2022-10-22T13:52:50.487Z,100196.80
2022-10-22T13:57:45.685Z,100201.80
2022-10-22T14:02:41.075Z,100193.40
2022-10-22T14:07:36.471Z,100199.40
2022-10-22T14:12:31.361Z,100196.40
2022-10-22T14:17:26.253Z,100195.40
2022-10-22T14:22:30.494Z,100180.00
2022-10-22T14:27:25.464Z,100185.00
2022-10-22T14:32:21.552Z,100187.20
2022-10-22T14:37:19.604Z,100187.80
2022-10-22T14:42:16.158Z,100171.80
2022-10-22T14:47:11.655Z,100167.00
2022-10-22T14:52:07.370Z,100169.40
2022-10-22T14:57:05.913Z,100173.40
2022-10-22T15:02:01.069Z,100179.20
2022-10-22T15:06:55.850Z,100179.40
2022-10-22T15:11:52.275Z,100185.80
2022-10-22T15:16:47.286Z,100188.40
2022-10-22T15:26:41.964Z,100189.80
2022-10-22T15:31:49.853Z,100192.00
2022-10-22T15:36:44.760Z,100196.60
2022-10-22T15:41:40.119Z,100197.40
2022-10-22T15:46:36.005Z,100199.60
2022-10-22T15:51:30.667Z,100204.20
2022-10-22T15:56:27.805Z,100205.20
2022-10-22T16:01:23.381Z,100207.00
2022-10-22T16:06:20.710Z,100210.20
2022-10-22T16:11:15.527Z,100206.20
2022-10-22T16:16:11.725Z,100216.40
2022-10-22T16:21:11.687Z,100219.60
2022-10-22T16:26:07.372Z,100223.20
2022-10-22T16:31:06.179Z,100231.40
2022-10-22T16:36:01.204Z,100224.00
2022-10-22T16:41:07.244Z,100226.40
2022-10-22T16:46:02.848Z,100231.60
2022-10-22T16:50:59.076Z,100239.60
2022-10-22T16:55:53.923Z,100237.00
2022-10-22T17:00:49.636Z,100241.40
2022-10-22T17:05:45.098Z,100244.20
2022-10-22T17:10:40.932Z,100242.20
2022-10-22T17:15:37.118Z,100237.20
2022-10-22T17:20:32.588Z,100245.00
2022-10-22T17:25:41.607Z,100247.80
2022-10-22T17:30:40.202Z,100245.80
2022-10-22T17:35:39.455Z,100242.20
2022-10-22T17:40:35.403Z,100241.80
2022-10-22T17:45:30.176Z,100239.40
2022-10-22T17:50:25.450Z,100244.80
2022-10-22T17:55:20.450Z,100247.80
2022-10-22T18:05:19.331Z,100248.60
2022-10-22T18:10:15.363Z,100252.00
2022-10-22T18:15:12.226Z,100253.60
2022-10-22T18:20:12.252Z,100252.60
2022-10-22T18:25:11.772Z,100250.40
2022-10-22T18:30:11.706Z,100250.60
2022-10-22T18:35:09.160Z,100253.20
2022-10-22T18:40:05.492Z,100260.40
2022-10-22T18:45:00.562Z,100253.00
2022-10-22T18:49:55.825Z,100254.60
2022-10-22T18:54:50.877Z,100259.40
2022-10-22T18:59:45.863Z,100258.80
2022-10-22T19:04:41.254Z,100257.40
2022-10-22T19:09:36.259Z,100257.60
2022-10-22T19:14:31.507Z,100262.20
2022-10-22T19:19:26.665Z,100264.60
2022-10-22T19:24:22.643Z,100266.20
2022-10-22T19:29:19.428Z,100270.40
2022-10-22T19:34:14.775Z,100273.60
2022-10-22T19:39:10.424Z,100273.40
2022-10-22T19:44:05.963Z,100278.80
2022-10-22T19:49:03.668Z,100281.60
2022-10-22T19:54:04.815Z,100290.20
2022-10-22T19:59:00.404Z,100294.00
2022-10-22T20:03:55.775Z,100297.60
2022-10-22T20:08:55.238Z,100306.40
2022-10-22T20:13:52.651Z,100311.20
2022-10-22T20:18:47.915Z,100311.80
2022-10-22T20:23:43.321Z,100325.40
2022-10-22T20:28:39.831Z,100334.80
2022-10-22T20:33:34.687Z,100339.20
2022-10-22T20:38:30.484Z,100337.00
2022-10-22T20:43:25.409Z,100340.40
2022-10-22T20:48:20.998Z,100346.00
2022-10-22T20:53:16.924Z,100349.80
2022-10-22T20:58:12.015Z,100347.80
2022-10-22T21:03:06.898Z,100347.60
2022-10-22T21:08:04.350Z,100347.40
2022-10-22T21:12:59.978Z,100347.20
2022-10-22T21:17:55.416Z,100348.20
2022-10-22T21:22:50.229Z,100348.40
2022-10-22T21:27:44.831Z,100355.80
2022-10-22T21:32:40.652Z,100360.60
2022-10-22T21:37:35.735Z,100356.80
2022-10-22T21:42:30.677Z,100358.40
2022-10-22T21:47:26.094Z,100365.60
2022-10-22T21:52:22.170Z,100362.60
2022-10-22T21:57:17.080Z,100359.20
2022-10-22T22:02:12.475Z,100356.80
2022-10-22T22:07:07.227Z,100361.80
2022-10-22T22:12:02.534Z,100367.40
2022-10-22T22:16:57.954Z,100364.60
2022-10-22T22:21:53.072Z,100364.40
2022-10-22T22:26:48.933Z,100370.20
2022-10-22T22:31:45.447Z,100373.40
2022-10-22T22:36:43.245Z,100382.00
2022-10-22T22:41:38.207Z,100381.20
2022-10-22T22:46:33.431Z,100383.40
2022-10-22T22:51:28.807Z,100389.80
2022-10-22T22:56:28.315Z,100394.00
2022-10-22T23:01:26.617Z,100402.40
2022-10-22T23:06:22.258Z,100410.60
2022-10-22T23:11:17.168Z,100409.00
2022-10-22T23:16:17.413Z,100420.60
2022-10-22T23:21:16.688Z,100417.20
2022-10-22T23:26:14.115Z,100419.00
2022-10-22T23:31:12.410Z,100416.80
2022-10-22T23:36:08.955Z,100424.00
2022-10-22T23:41:04.853Z,100434.00
2022-10-22T23:46:00.147Z,100432.80
2022-10-22T23:50:54.666Z,100440.00
2022-10-22T23:55:49.862Z,100448.60
